Time;durP1;ratioP1;P1;durP2;ratioP2;P2;SDS_P1;SDS_P2;PMS_P1;PMS_P2;Temp;Humidity;BMP_temperature;BMP_pressure;BME280_temperature;BME280_humidity;BME280_pressure;Samples;Min_cycle;Max_cycle;Signal;HPM_P1;HPM_P2
2022/08/03 00:01:28;;;;;;;16.23;14.73;;;;;;;16.95;100.00;101415.47;5014074;28;20437;-51
2022/08/03 00:03:55;;;;;;;15.53;14.03;;;;;;;16.94;100.00;101416.50;5013794;28;20803;-49
2022/08/03 00:06:23;;;;;;;15.73;14.43;;;;;;;16.94;100.00;101421.06;5013967;28;20457;-49
2022/08/03 00:08:50;;;;;;;16.87;15.47;;;;;;;16.93;100.00;101417.56;5013542;28;20463;-50
2022/08/03 00:11:18;;;;;;;15.77;14.43;;;;;;;16.90;100.00;101409.94;5013922;28;20433;-51
2022/08/03 00:13:47;;;;;;;17.43;15.83;;;;;;;16.87;100.00;101407.69;5013481;28;20448;-48
2022/08/03 00:16:15;;;;;;;17.10;15.60;;;;;;;16.85;100.00;101400.84;5013592;28;20465;-50
2022/08/03 00:18:43;;;;;;;15.87;14.53;;;;;;;16.82;100.00;101396.72;5013213;28;20461;-50
2022/08/03 00:21:11;;;;;;;17.63;15.53;;;;;;;16.80;100.00;101392.59;5013315;28;20480;-49
2022/08/03 00:23:38;;;;;;;16.27;14.90;;;;;;;16.79;100.00;101404.41;5013696;28;20433;-52
2022/08/03 00:26:19;;;;;;;16.10;14.77;;;;;;;16.77;100.00;101403.81;5013346;28;21055;-46
2022/08/03 00:28:48;;;;;;;16.00;14.70;;;;;;;16.75;100.00;101404.06;5013052;28;20472;-46
2022/08/03 00:31:16;;;;;;;14.10;12.97;;;;;;;16.74;100.00;101404.28;5013643;28;20429;-45
2022/08/03 00:33:58;;;;;;;16.37;14.90;;;;;;;16.71;100.00;101393.94;5005997;28;20438;-46
2022/08/03 00:36:30;;;;;;;16.40;15.00;;;;;;;16.72;100.00;101406.38;5013495;28;20445;-46
2022/08/03 00:38:58;;;;;;;17.93;15.73;;;;;;;16.70;100.00;101398.50;5012852;28;20488;-48
2022/08/03 00:41:25;;;;;;;17.20;15.50;;;;;;;16.69;100.00;101396.88;5013468;28;20477;-50
2022/08/03 00:43:54;;;;;;;18.33;16.60;;;;;;;16.69;100.00;101393.34;5013310;28;20443;-47
2022/08/03 00:46:22;;;;;;;15.70;14.40;;;;;;;16.68;100.00;101391.69;5013357;28;20479;-48
2022/08/03 00:48:50;;;;;;;17.70;15.90;;;;;;;16.66;100.00;101391.91;5012779;28;20468;-50
2022/08/03 00:51:18;;;;;;;17.60;16.10;;;;;;;16.66;100.00;101391.91;5013128;28;20451;-45
2022/08/03 00:53:46;;;;;;;16.50;15.10;;;;;;;16.65;100.00;101398.34;5013193;28;20448;-47
2022/08/03 00:56:14;;;;;;;14.93;13.63;;;;;;;16.62;100.00;101396.09;5012803;28;20970;-47
2022/08/03 00:58:44;;;;;;;17.30;15.67;;;;;;;16.61;100.00;101391.75;5012585;28;20471;-48
2022/08/03 01:01:14;;;;;;;13.80;12.63;;;;;;;16.62;100.00;101382.63;5012252;28;20468;-51
2022/08/03 01:03:44;;;;;;;16.63;14.90;;;;;;;16.61;100.00;101388.25;5012819;28;20456;-46
2022/08/03 01:06:17;;;;;;;13.83;12.63;;;;;;;16.62;100.00;101385.31;5013152;28;20453;-51
2022/08/03 01:08:52;;;;;;;13.83;12.73;;;;;;;16.61;100.00;101372.09;5012343;28;20537;-48
2022/08/03 01:11:29;;;;;;;15.00;13.70;;;;;;;16.62;100.00;101379.09;5012917;28;20412;-49
2022/08/03 01:14:04;;;;;;;15.67;14.13;;;;;;;16.61;100.00;101372.88;5012566;28;20417;-47
2022/08/03 01:16:54;;;;;;;12.70;11.70;;;;;;;16.61;100.00;101372.09;5012465;28;20579;-48
2022/08/03 01:19:42;;;;;;;14.97;12.50;;;;;;;16.61;100.00;101378.28;5012059;28;20464;-49
2022/08/03 01:22:24;;;;;;;15.10;12.20;;;;;;;16.63;100.00;101370.81;5012634;28;20457;-48
2022/08/03 01:24:59;;;;;;;13.77;12.60;;;;;;;16.65;100.00;101368.72;5012380;28;20433;-50
2022/08/03 01:27:47;;;;;;;13.70;12.50;;;;;;;16.68;100.00;101365.59;5012337;28;20973;-46
2022/08/03 01:30:16;;;;;;;13.27;12.20;;;;;;;16.69;100.00;101366.41;5012533;28;20459;-48
2022/08/03 01:32:50;;;;;;;13.13;12.13;;;;;;;16.73;100.00;101371.13;5012176;28;20440;-51
2022/08/03 01:35:36;;;;;;;13.23;12.20;;;;;;;16.77;100.00;101372.34;5020317;28;20910;-49
2022/08/03 01:38:09;;;;;;;13.50;12.20;;;;;;;16.81;100.00;101370.03;5028394;28;20538;-46
2022/08/03 01:40:39;;;;;;;12.20;11.33;;;;;;;16.84;100.00;101370.41;5032185;28;20460;-47
2022/08/03 01:43:10;;;;;;;15.00;13.80;;;;;;;16.86;100.00;101367.47;5032332;28;20436;-45
2022/08/03 01:45:40;;;;;;;13.53;12.63;;;;;;;16.88;100.00;101363.50;5032064;28;20413;-50
2022/08/03 01:48:09;;;;;;;13.47;12.17;;;;;;;16.91;100.00;101363.06;5031736;28;20460;-49
2022/08/03 01:50:37;;;;;;;13.97;12.97;;;;;;;16.94;100.00;101368.00;5031896;28;20940;-53
2022/08/03 01:53:06;;;;;;;12.90;11.70;;;;;;;16.97;100.00;101370.25;5031961;28;20856;-50
2022/08/03 01:55:37;;;;;;;13.43;12.40;;;;;;;17.01;100.00;101371.47;5031946;28;20431;-49
2022/08/03 01:58:06;;;;;;;11.60;10.80;;;;;;;17.04;100.00;101356.72;5031330;28;20467;-48
2022/08/03 02:00:36;;;;;;;13.27;12.10;;;;;;;17.06;100.00;101357.31;5031676;28;20478;-48
2022/08/03 02:03:07;;;;;;;14.03;12.80;;;;;;;17.04;100.00;101357.56;5031816;28;20428;-47
2022/08/03 02:05:36;;;;;;;13.40;12.03;;;;;;;17.02;100.00;101358.81;5032000;28;20436;-50
2022/08/03 02:08:06;;;;;;;15.37;13.97;;;;;;;17.00;100.00;101353.66;5031395;28;20460;-51
2022/08/03 02:10:35;;;;;;;13.53;12.60;;;;;;;16.95;100.00;101361.59;5031754;28;20408;-49
2022/08/03 02:13:06;;;;;;;14.70;13.60;;;;;;;16.94;100.00;101362.63;5033267;28;20440;-49
2022/08/03 02:15:36;;;;;;;14.57;12.17;;;;;;;16.91;100.00;101355.00;5035717;28;20447;-47
2022/08/03 02:18:08;;;;;;;14.53;13.23;;;;;;;16.88;100.00;101350.03;5035074;28;20466;-49
2022/08/03 02:20:37;;;;;;;13.23;12.33;;;;;;;16.88;100.00;101363.50;5035851;28;20783;-47
2022/08/03 02:23:06;;;;;;;13.03;12.20;;;;;;;16.86;100.00;101356.72;5035640;28;20463;-48
2022/08/03 02:25:38;;;;;;;14.93;12.87;;;;;;;16.85;100.00;101350.50;5035629;28;20432;-47
2022/08/03 02:28:10;;;;;;;14.43;13.33;;;;;;;16.86;100.00;101344.06;5035290;28;20471;-50
2022/08/03 02:30:40;;;;;;;14.13;12.93;;;;;;;16.88;100.00;101349.22;5035642;28;20432;-49
2022/08/03 02:33:17;;;;;;;15.77;14.27;;;;;;;16.90;100.00;101345.28;5035514;28;20421;-51
2022/08/03 02:35:48;;;;;;;14.67;13.47;;;;;;;16.92;100.00;101337.78;5035528;28;20455;-48
2022/08/03 02:38:21;;;;;;;12.67;11.73;;;;;;;16.94;100.00;101334.84;5017101;28;20468;-48
2022/08/03 02:40:50;;;;;;;15.50;14.13;;;;;;;16.93;100.00;101331.34;5015643;28;20464;-51
2022/08/03 02:43:21;;;;;;;13.93;12.83;;;;;;;16.93;100.00;101328.66;5015582;28;20437;-50
2022/08/03 02:45:51;;;;;;;12.07;11.03;;;;;;;16.94;100.00;101326.78;5015536;28;20807;-48
2022/08/03 02:48:23;;;;;;;15.30;14.23;;;;;;;16.93;100.00;101330.53;5014798;28;20464;-48
2022/08/03 02:50:52;;;;;;;15.13;13.80;;;;;;;16.91;100.00;101328.03;5015547;28;20416;-48
2022/08/03 02:53:22;;;;;;;14.60;13.60;;;;;;;16.89;100.00;101332.84;5015434;28;20440;-53
2022/08/03 02:55:51;;;;;;;16.93;15.47;;;;;;;16.89;100.00;101332.84;5014979;28;20445;-50
2022/08/03 02:58:21;;;;;;;14.53;13.30;;;;;;;16.88;100.00;101330.34;5014765;28;20461;-51
2022/08/03 03:00:50;;;;;;;17.53;15.83;;;;;;;16.89;100.00;101327.47;5015532;28;20440;-45
2022/08/03 03:03:20;;;;;;;16.10;14.90;;;;;;;16.88;100.00;101323.09;5014787;28;20441;-45
2022/08/03 03:05:50;;;;;;;17.70;15.93;;;;;;;16.88;100.00;101320.41;5014987;28;20460;-49
2022/08/03 03:08:25;;;;;;;17.43;15.90;;;;;;;16.87;100.00;101316.09;5014499;28;20457;-47
2022/08/03 03:10:57;;;;;;;15.53;14.30;;;;;;;16.88;100.00;101317.72;5014760;28;20520;-51
2022/08/03 03:13:28;;;;;;;18.20;16.73;;;;;;;16.88;100.00;101319.59;5014863;28;20444;-47
2022/08/03 03:15:59;;;;;;;16.87;15.57;;;;;;;16.88;100.00;101317.72;5014590;28;20982;-46
2022/08/03 03:18:30;;;;;;;15.07;14.03;;;;;;;16.89;100.00;101315.84;5014403;28;20467;-45
2022/08/03 03:20:59;;;;;;;18.10;16.67;;;;;;;16.90;100.00;101318.34;5014676;28;20432;-48
2022/08/03 03:23:28;;;;;;;18.70;16.97;;;;;;;16.90;100.00;101318.34;5014308;28;20437;-49
2022/08/03 03:25:57;;;;;;;16.70;15.50;;;;;;;16.92;100.00;101321.63;5013788;28;20453;-47
2022/08/03 03:28:26;;;;;;;16.00;14.90;;;;;;;16.94;100.00;101314.13;5014224;28;20463;-50
2022/08/03 03:30:53;;;;;;;16.40;15.10;;;;;;;16.96;100.00;101312.06;5014464;28;20443;-45
2022/08/03 03:33:22;;;;;;;15.50;14.40;;;;;;;16.98;100.00;101315.34;5011970;28;20440;-47
2022/08/03 03:35:51;;;;;;;16.57;15.37;;;;;;;17.01;100.00;101309.50;5016828;28;20544;-47
2022/08/03 03:38:19;;;;;;;18.60;17.00;;;;;;;17.04;100.00;101310.91;5032290;28;20464;-44
2022/08/03 03:40:48;;;;;;;19.00;16.80;;;;;;;17.09;100.00;101311.06;5033983;28;20432;-44
2022/08/03 03:43:17;;;;;;;18.50;16.80;;;;;;;17.13;100.00;101310.41;5033747;28;20479;-46
2022/08/03 03:45:45;;;;;;;20.90;19.00;;;;;;;17.20;100.00;101313.00;5033878;28;20456;-45
2022/08/03 03:48:13;;;;;;;17.90;16.50;;;;;;;17.27;100.00;101312.91;5033380;28;20463;-46
2022/08/03 03:50:41;;;;;;;19.27;17.47;;;;;;;17.34;100.00;101313.66;5033801;28;20443;-44
2022/08/03 03:53:11;;;;;;;17.73;16.23;;;;;;;17.42;100.00;101306.06;5033720;28;20443;-50
2022/08/03 03:55:39;;;;;;;17.10;15.60;;;;;;;17.47;100.00;101308.09;5033885;28;20440;-51
2022/08/03 03:58:27;;;;;;;18.27;16.97;;;;;;;17.55;100.00;101313.19;5033322;28;20460;-46
2022/08/03 04:00:54;;;;;;;17.83;16.13;;;;;;;17.62;100.00;101303.16;5033529;28;20427;-46
2022/08/03 04:03:22;;;;;;;17.30;15.80;;;;;;;17.70;100.00;101316.31;5033502;28;20471;-47
2022/08/03 04:11:25;;;;;;;16.57;15.37;;;;;;;17.97;100.00;101317.56;5033485;28;20940;-50
2022/08/03 04:14:04;;;;;;;15.53;14.07;;;;;;;18.08;100.00;101311.38;5033416;28;20533;-50
2022/08/03 04:16:35;;;;;;;15.50;13.80;;;;;;;18.22;100.00;101318.19;5033140;28;20475;-45
2022/08/03 04:19:10;;;;;;;14.03;13.07;;;;;;;18.40;100.00;101309.16;5033105;28;20495;-52
2022/08/03 04:21:43;;;;;;;15.30;14.10;;;;;;;18.60;100.00;101311.56;5033183;28;20798;-50
2022/08/03 04:24:15;;;;;;;14.37;12.90;;;;;;;18.80;100.00;101314.72;5033190;28;20439;-44
2022/08/03 04:26:45;;;;;;;15.67;14.20;;;;;;;18.98;100.00;101311.88;5033108;28;20459;-48
2022/08/03 04:29:20;;;;;;;14.50;13.20;;;;;;;19.20;100.00;101301.25;5032620;28;20832;-48
2022/08/03 04:31:49;;;;;;;15.40;14.17;;;;;;;19.40;100.00;101307.09;5033083;28;20436;-45
2022/08/03 04:34:17;;;;;;;15.30;13.73;;;;;;;19.60;100.00;101309.34;5024526;28;20494;-45
2022/08/03 04:36:49;;;;;;;14.60;13.50;;;;;;;19.84;100.00;101314.41;5024677;28;20767;-44
2022/08/03 04:39:25;;;;;;;15.87;14.67;;;;;;;20.12;100.00;101318.97;5032466;28;20460;-44
2022/08/03 04:41:54;;;;;;;12.60;11.60;;;;;;;20.45;100.00;101311.91;5032796;28;20436;-46
2022/08/03 04:44:37;;;;;;;14.43;11.80;;;;;;;21.05;100.00;101318.22;5032519;28;20454;-44
2022/08/03 04:47:05;;;;;;;13.63;12.63;;;;;;;21.35;100.00;101310.47;5032788;28;20455;-45
2022/08/03 04:49:35;;;;;;;12.50;11.50;;;;;;;21.97;100.00;101310.88;5032205;28;20471;-44
2022/08/03 04:52:03;;;;;;;9.53;9.03;;;;;;;22.61;96.44;101317.06;5032960;28;20519;-47
2022/08/03 04:54:39;;;;;;;12.23;11.43;;;;;;;22.96;93.55;101302.88;5032511;28;20439;-47
2022/08/03 04:57:07;;;;;;;12.60;11.57;;;;;;;23.31;89.09;101313.09;5032413;28;20454;-49
2022/08/03 04:59:36;;;;;;;12.67;11.67;;;;;;;23.84;81.21;101308.31;5032189;28;20468;-46
2022/08/03 05:02:07;;;;;;;10.90;10.10;;;;;;;24.52;80.50;101313.25;5032221;28;21045;-48
2022/08/03 05:04:36;;;;;;;11.37;10.67;;;;;;;25.16;75.91;101313.38;5032527;28;20444;-45
2022/08/03 05:07:04;;;;;;;13.63;12.70;;;;;;;24.74;71.23;101316.50;5032328;28;20462;-47
2022/08/03 05:09:40;;;;;;;13.50;12.50;;;;;;;24.66;72.11;101310.78;5031840;28;20517;-45
2022/08/03 05:12:19;;;;;;;11.40;10.70;;;;;;;25.74;70.68;101313.66;5032330;28;20794;-47
2022/08/03 05:14:46;;;;;;;11.47;10.27;;;;;;;26.62;68.98;101322.47;5032249;28;20436;-47
2022/08/03 05:17:14;;;;;;;11.10;10.40;;;;;;;27.08;67.64;101319.28;5032147;28;20466;-46
2022/08/03 05:19:42;;;;;;;11.17;10.53;;;;;;;26.67;66.28;101318.91;5031845;28;20475;-45
2022/08/03 05:22:10;;;;;;;11.20;10.50;;;;;;;26.32;63.91;101320.03;5031821;28;20440;-45
2022/08/03 05:24:37;;;;;;;12.07;11.23;;;;;;;25.93;64.80;101325.53;5032372;28;20435;-44
2022/08/03 05:27:06;;;;;;;12.80;11.97;;;;;;;25.89;65.86;101313.53;5032290;28;20447;-48
2022/08/03 05:29:34;;;;;;;10.07;9.47;;;;;;;26.22;66.17;101318.19;5031742;28;20477;-45
2022/08/03 05:32:01;;;;;;;11.00;10.20;;;;;;;26.50;67.44;101319.31;5032085;28;20434;-45
2022/08/03 05:34:34;;;;;;;9.50;8.90;;;;;;;27.02;65.00;101317.72;5023780;28;20964;-48
2022/08/03 05:37:02;;;;;;;11.00;10.30;;;;;;;27.09;59.66;101315.44;5023957;28;20455;-45
2022/08/03 05:39:30;;;;;;;9.53;8.93;;;;;;;27.19;61.29;101328.97;5031530;28;20830;-45
2022/08/03 05:41:57;;;;;;;7.93;7.53;;;;;;;27.91;62.96;101322.25;5031995;28;20438;-45
2022/08/03 05:44:27;;;;;;;10.07;9.20;;;;;;;28.40;61.49;101314.34;5031626;28;20478;-52
2022/08/03 05:46:57;;;;;;;11.43;7.77;;;;;;;29.41;59.56;101319.78;5031655;28;20482;-44
2022/08/03 05:49:24;;;;;;;6.20;5.90;;;;;;;30.63;58.05;101318.47;5031129;28;20467;-45
2022/08/03 05:51:52;;;;;;;6.47;6.03;;;;;;;31.30;50.07;101313.53;5032008;28;20486;-45
2022/08/03 05:54:39;;;;;;;6.50;5.80;;;;;;;31.99;53.23;101311.63;5031872;28;20235;-45
2022/08/03 05:57:23;;;;;;;6.20;5.50;;;;;;;31.99;51.21;101317.16;5031658;28;20221;-46
2022/08/03 05:59:52;;;;;;;5.70;5.20;;;;;;;31.62;49.84;101324.16;5031141;28;20575;-45
2022/08/03 06:02:25;;;;;;;8.00;6.73;;;;;;;32.05;50.36;101323.38;5031820;28;20203;-44
2022/08/03 06:04:53;;;;;;;5.80;5.47;;;;;;;32.85;49.05;101326.06;5031760;28;20196;-45
2022/08/03 06:07:21;;;;;;;6.53;6.03;;;;;;;33.37;44.10;101323.03;5031671;28;20213;-47
2022/08/03 06:09:48;;;;;;;6.30;5.80;;;;;;;33.73;41.49;101325.22;5031082;28;20231;-45
2022/08/03 06:12:36;;;;;;;6.57;5.93;;;;;;;33.96;41.42;101320.94;5031539;28;20566;-46
2022/08/03 06:15:05;;;;;;;5.78;5.38;;;;;;;34.27;44.88;101326.06;5031872;28;20223;-45
2022/08/03 06:17:44;;;;;;;6.60;6.00;;;;;;;34.73;42.53;101328.50;5030975;28;20298;-44
2022/08/03 06:20:12;;;;;;;6.75;6.32;;;;;;;34.62;37.29;101332.06;5031635;28;20203;-48
2022/08/03 06:22:40;;;;;;;6.25;5.85;;;;;;;35.00;41.35;101327.81;5031068;28;20552;-48
2022/08/03 06:25:26;;;;;;;5.88;5.53;;;;;;;35.51;40.16;101326.25;5031510;28;20197;-46
2022/08/03 06:27:54;;;;;;;5.00;4.60;;;;;;;35.81;40.32;101321.22;5020978;28;20194;-47
2022/08/03 06:30:23;;;;;;;6.03;4.57;;;;;;;35.85;35.74;101313.00;5009376;28;20574;-43
2022/08/03 06:32:51;;;;;;;5.20;4.72;;;;;;;36.20;37.63;101313.22;5011375;28;20224;-46
2022/08/03 06:35:19;;;;;;;5.40;4.68;;;;;;;36.46;34.27;101310.72;5019599;28;20201;-45
2022/08/03 06:37:49;;;;;;;6.35;4.38;;;;;;;36.26;34.54;101315.34;5025079;28;20193;-47
2022/08/03 06:40:22;;;;;;;5.90;4.30;;;;;;;36.03;34.79;101319.84;5031419;28;20200;-47
2022/08/03 06:42:51;;;;;;;4.18;3.90;;;;;;;35.79;35.55;101315.22;5031089;28;20200;-49
2022/08/03 06:45:18;;;;;;;4.20;3.80;;;;;;;35.54;36.56;101316.44;5031211;28;20818;-46
2022/08/03 06:47:47;;;;;;;4.40;4.00;;;;;;;35.85;36.87;101318.53;5029330;28;20224;-45
2022/08/03 06:50:15;;;;;;;4.90;3.72;;;;;;;36.36;35.17;101316.81;5031471;28;20193;-49
2022/08/03 06:52:47;;;;;;;4.60;3.60;;;;;;;36.23;34.74;101309.72;5031118;28;20267;-48
2022/08/03 06:55:14;;;;;;;4.07;3.78;;;;;;;36.72;35.88;101316.59;5031155;28;20220;-44
2022/08/03 06:57:42;;;;;;;3.97;3.58;;;;;;;36.44;34.68;101307.53;5030533;28;20243;-45
2022/08/03 07:00:11;;;;;;;4.65;4.03;;;;;;;36.78;35.05;101303.22;5032617;28;20197;-46
2022/08/03 07:02:39;;;;;;;4.07;3.30;;;;;;;36.89;35.04;101312.66;5034058;28;20232;-51
2022/08/03 07:05:09;;;;;;;4.55;4.15;;;;;;;36.67;33.66;101316.06;5034695;28;20221;-43
2022/08/03 07:07:37;;;;;;;5.15;4.07;;;;;;;36.65;34.50;101318.41;5026137;28;20220;-44
2022/08/03 07:10:06;;;;;;;3.90;3.60;;;;;;;36.96;33.39;101324.72;5034331;28;20307;-44
2022/08/03 07:12:35;;;;;;;5.45;3.65;;;;;;;36.52;33.21;101323.22;5034026;28;20216;-46
2022/08/03 07:15:05;;;;;;;4.90;3.45;;;;;;;36.32;34.77;101325.03;5034256;28;20193;-44
2022/08/03 07:17:33;;;;;;;4.15;3.80;;;;;;;36.23;33.37;101327.19;5033463;28;20229;-46
2022/08/03 07:20:04;;;;;;;3.35;3.05;;;;;;;36.19;34.28;101328.25;5033012;28;20229;-45
2022/08/03 07:22:33;;;;;;;5.65;3.83;;;;;;;35.97;33.95;101326.81;5033337;28;20197;-46
2022/08/03 07:25:01;;;;;;;5.05;4.30;;;;;;;35.93;35.00;101335.03;5033738;28;20705;-43
2022/08/03 07:27:29;;;;;;;4.07;3.70;;;;;;;35.52;34.96;101327.88;5034432;28;20301;-45
2022/08/03 07:29:58;;;;;;;7.45;4.38;;;;;;;35.57;35.87;101326.88;5033741;28;20232;-46
2022/08/03 07:32:25;;;;;;;4.70;4.28;;;;;;;35.67;36.24;101328.31;5033381;28;20291;-52
2022/08/03 07:34:53;;;;;;;4.20;3.90;;;;;;;35.78;36.05;101337.78;5017869;28;20189;-46
2022/08/03 07:37:26;;;;;;;5.25;3.97;;;;;;;35.90;36.60;101338.53;5025838;28;20221;-48
2022/08/03 07:39:55;;;;;;;4.35;3.95;;;;;;;35.75;36.25;101332.94;5033383;28;20578;-44
2022/08/03 07:42:23;;;;;;;6.40;3.88;;;;;;;35.66;35.56;101330.31;5033643;28;20197;-50
2022/08/03 07:44:50;;;;;;;3.95;3.55;;;;;;;35.65;36.44;101331.47;5033962;28;20567;-46
2022/08/03 07:47:19;;;;;;;4.90;3.40;;;;;;;35.33;36.07;101335.22;5033948;28;20221;-45
2022/08/03 07:49:49;;;;;;;7.88;4.05;;;;;;;35.01;37.58;101329.41;5033396;28;20224;-46
2022/08/03 07:55:05;;;;;;;5.70;4.35;;;;;;;34.36;37.71;101329.53;5033748;28;20677;-46
2022/08/03 07:57:33;;;;;;;3.83;3.35;;;;;;;33.93;38.86;101329.97;5033833;28;20213;-45
2022/08/03 08:00:00;;;;;;;4.78;4.20;;;;;;;33.31;39.34;101316.09;5033212;28;20231;-46
2022/08/03 08:02:29;;;;;;;4.40;3.97;;;;;;;32.82;40.18;101326.75;5033446;28;20189;-45
2022/08/03 08:04:57;;;;;;;4.07;3.67;;;;;;;32.43;41.00;101318.72;5033641;28;20213;-48
2022/08/03 08:07:31;;;;;;;4.78;3.95;;;;;;;31.93;41.05;101318.44;5033713;28;20224;-47
2022/08/03 08:09:59;;;;;;;4.43;3.90;;;;;;;31.58;43.38;101327.84;5032916;28;20224;-49
2022/08/03 08:12:28;;;;;;;9.00;4.22;;;;;;;31.23;42.92;101329.72;5033000;28;20192;-46
2022/08/03 08:14:55;;;;;;;5.25;4.47;;;;;;;30.84;44.05;101330.53;5033296;28;20193;-47
2022/08/03 08:17:23;;;;;;;5.27;3.77;;;;;;;30.71;44.99;101324.00;5033181;28;20243;-48
2022/08/03 08:19:51;;;;;;;4.03;3.73;;;;;;;30.40;45.18;101327.91;5032739;28;20714;-45
2022/08/03 08:22:20;;;;;;;5.80;4.27;;;;;;;30.44;45.02;101321.44;5033067;28;20223;-47
2022/08/03 08:24:57;;;;;;;4.90;3.97;;;;;;;30.41;45.25;101319.31;5033211;28;20216;-45
2022/08/03 08:27:25;;;;;;;5.07;4.53;;;;;;;30.32;45.37;101323.94;5032056;28;20714;-52
2022/08/03 08:29:54;;;;;;;4.67;4.20;;;;;;;30.55;44.52;101327.50;5032701;28;20242;-44
2022/08/03 08:32:31;;;;;;;7.53;4.80;;;;;;;30.64;45.04;101314.59;5032981;28;20219;-50
2022/08/03 08:34:58;;;;;;;5.43;4.53;;;;;;;30.76;44.41;101314.00;5024863;28;20188;-48
2022/08/03 08:37:26;;;;;;;4.23;3.80;;;;;;;30.68;43.93;101327.41;5024497;28;20221;-45
2022/08/03 08:39:55;;;;;;;8.00;4.50;;;;;;;30.27;44.90;101317.75;5023575;28;20221;-47
2022/08/03 08:42:23;;;;;;;4.97;4.27;;;;;;;30.25;45.05;101314.50;5031975;28;20201;-48
2022/08/03 08:44:51;;;;;;;5.30;4.07;;;;;;;30.32;45.39;101323.09;5032838;28;20227;-45
2022/08/03 08:47:25;;;;;;;6.73;4.00;;;;;;;30.23;44.99;101322.28;5032645;28;20703;-50
2022/08/03 08:49:54;;;;;;;8.10;3.90;;;;;;;30.06;46.76;101322.94;5031983;28;20227;-47
2022/08/03 08:52:40;;;;;;;4.50;4.07;;;;;;;29.85;47.22;101317.13;5032030;28;20197;-45
2022/08/03 08:55:10;;;;;;;5.60;3.87;;;;;;;29.88;46.05;101324.75;5031730;28;20192;-51
2022/08/03 08:57:49;;;;;;;5.83;4.40;;;;;;;29.63;46.99;101326.13;4992351;28;20537;-45
2022/08/03 09:00:17;;;;;;;5.50;4.40;;;;;;;29.37;47.88;101324.25;5002537;28;20213;-48
2022/08/03 09:02:46;;;;;;;6.50;4.40;;;;;;;29.45;47.89;101318.84;5012347;28;20520;-48
2022/08/03 09:05:16;;;;;;;6.33;3.70;;;;;;;29.50;47.73;101324.25;5012200;28;20515;-50
2022/08/03 09:07:44;;;;;;;6.07;3.50;;;;;;;29.57;46.57;101319.13;5011887;28;21012;-45
2022/08/03 09:10:13;;;;;;;8.00;4.10;;;;;;;29.31;46.17;101322.75;5016211;28;20801;-48
2022/08/03 09:12:43;;;;;;;6.30;3.50;;;;;;;29.12;46.80;101325.59;5031553;28;20419;-49
2022/08/03 09:15:22;;;;;;;4.73;3.70;;;;;;;29.10;47.74;101331.38;5032230;28;20434;-48
2022/08/03 09:17:53;;;;;;;5.30;3.83;;;;;;;29.08;49.18;101328.13;5031514;28;20432;-46
2022/08/03 09:20:23;;;;;;;4.73;4.00;;;;;;;29.04;48.92;101335.34;5031922;28;20794;-52
2022/08/03 09:22:53;;;;;;;5.23;3.60;;;;;;;29.10;48.56;101331.38;5031349;28;20438;-47
2022/08/03 09:25:27;;;;;;;6.23;4.17;;;;;;;29.00;49.63;101328.81;5031380;28;20499;-49
2022/08/03 09:28:04;;;;;;;4.00;3.60;;;;;;;29.01;49.37;101335.97;5031440;28;20436;-47
2022/08/03 09:30:32;;;;;;;5.40;3.70;;;;;;;29.07;49.93;101329.25;5021872;28;20431;-45
2022/08/03 09:33:04;;;;;;;5.13;4.27;;;;;;;29.14;49.57;101333.50;5016271;28;20475;-46
2022/08/03 09:35:32;;;;;;;6.17;3.40;;;;;;;29.32;49.05;101336.19;5012227;28;20439;-44
2022/08/03 09:38:22;;;;;;;4.33;3.43;;;;;;;29.28;49.11;101332.41;5029637;28;20467;-44
2022/08/03 09:40:50;;;;;;;5.03;4.07;;;;;;;29.36;48.31;101337.19;5031306;28;20530;-48
2022/08/03 09:43:26;;;;;;;6.63;4.40;;;;;;;29.26;48.99;101340.16;5031664;28;20518;-44
2022/08/03 09:46:02;;;;;;;4.07;3.67;;;;;;;29.34;48.43;101344.91;5031626;28;20845;-45
2022/08/03 09:48:33;;;;;;;6.13;3.40;;;;;;;29.50;49.00;101339.91;5030866;28;20467;-47
2022/08/03 09:51:03;;;;;;;3.87;3.40;;;;;;;29.60;47.70;101336.91;5031503;28;20447;-44
2022/08/03 09:53:43;;;;;;;7.20;3.83;;;;;;;29.40;48.43;101335.44;5030929;28;20519;-49
2022/08/03 09:56:38;;;;;;;6.73;4.17;;;;;;;29.48;48.51;101334.72;5030532;28;21027;-47
2022/08/03 09:59:06;;;;;;;6.63;3.70;;;;;;;29.39;48.40;101341.25;5031142;28;20467;-46
2022/08/03 10:01:35;;;;;;;7.00;3.53;;;;;;;29.29;48.99;101330.47;5031820;28;20442;-46
2022/08/03 10:04:04;;;;;;;5.53;3.57;;;;;;;29.14;50.02;101339.00;5031811;28;20431;-46
2022/08/03 10:06:32;;;;;;;4.70;3.07;;;;;;;29.14;49.52;101339.81;5032537;28;20475;-53
2022/08/03 10:09:08;;;;;;;6.77;4.23;;;;;;;29.46;48.76;101339.72;5031300;28;21017;-48
2022/08/03 10:11:36;;;;;;;8.23;3.53;;;;;;;29.40;48.86;101343.69;5031759;28;20431;-49
2022/08/03 10:14:10;;;;;;;7.93;4.00;;;;;;;29.36;48.59;101336.38;5031529;28;20443;-49
2022/08/03 10:16:39;;;;;;;14.10;3.80;;;;;;;29.09;49.88;101339.94;5031910;28;20460;-47
2022/08/03 10:19:09;;;;;;;6.67;3.90;;;;;;;29.00;49.42;101339.81;5019586;28;20472;-46
2022/08/03 10:21:38;;;;;;;7.10;3.70;;;;;;;29.06;50.54;101354.28;5019572;28;20432;-48
2022/08/03 10:24:09;;;;;;;8.20;3.47;;;;;;;29.25;49.97;101348.69;5027164;28;20934;-45
2022/08/03 10:26:39;;;;;;;7.63;3.73;;;;;;;29.34;49.99;101352.34;5010267;28;20476;-50
2022/08/03 10:29:23;;;;;;;9.27;4.20;;;;;;;29.37;49.68;101354.47;5011139;28;21104;-47
2022/08/03 10:31:54;;;;;;;6.50;3.70;;;;;;;29.60;49.36;101354.22;5011648;28;20443;-46
2022/08/03 10:34:33;;;;;;;4.73;3.23;;;;;;;29.92;48.82;101350.53;5015844;28;20514;-48
2022/08/03 10:37:07;;;;;;;6.43;3.90;;;;;;;30.15;49.60;101348.56;5027123;28;20439;-45
2022/08/03 10:39:36;;;;;;;7.00;3.63;;;;;;;30.40;47.65;101348.00;5034712;28;20465;-45
2022/08/03 10:42:06;;;;;;;4.43;3.70;;;;;;;30.60;46.50;101349.38;5034572;28;20436;-49
2022/08/03 10:44:42;;;;;;;4.53;2.80;;;;;;;30.69;47.16;101341.97;5035163;28;20431;-48
2022/08/03 10:47:10;;;;;;;4.20;3.30;;;;;;;30.55;47.15;101339.34;5034707;28;20216;-46
2022/08/03 10:49:40;;;;;;;2.93;2.83;;;;;;;30.60;47.10;101344.69;5034596;28;20217;-48
2022/08/03 10:52:09;;;;;;;5.20;3.73;;;;;;;30.58;47.03;101343.38;5034900;28;20436;-48
2022/08/03 10:57:51;;;;;;;3.93;3.50;;;;;;;30.57;48.16;101342.56;5034257;28;20224;-46
2022/08/03 11:00:26;;;;;;;4.87;4.40;;;;;;;30.38;47.80;101350.22;5035026;28;20283;-47
2022/08/03 11:03:16;;;;;;;3.97;3.67;;;;;;;30.51;47.25;101348.53;5034670;28;20465;-47
2022/08/03 11:05:47;;;;;;;4.03;3.63;;;;;;;30.45;47.61;101350.59;5034504;28;20229;-45
2022/08/03 11:08:28;;;;;;;4.13;2.83;;;;;;;30.34;47.99;101351.97;5034188;28;20247;-47
2022/08/03 11:10:59;;;;;;;3.33;3.13;;;;;;;30.49;47.50;101356.28;5034340;28;20442;-52
2022/08/03 11:13:30;;;;;;;2.97;2.67;;;;;;;30.38;47.93;101347.47;5034486;28;20440;-47
2022/08/03 11:16:01;;;;;;;4.80;2.80;;;;;;;30.94;48.03;101341.31;5024460;28;20460;-47
2022/08/03 11:18:33;;;;;;;3.67;3.00;;;;;;;31.01;47.92;101351.84;5033798;28;20224;-46
2022/08/03 11:21:02;;;;;;;2.87;2.63;;;;;;;31.33;47.05;101350.66;5034458;28;20432;-48
2022/08/03 11:23:45;;;;;;;3.40;3.10;;;;;;;31.49;45.33;101343.56;5034118;28;20201;-47
2022/08/03 11:26:33;;;;;;;4.80;3.23;;;;;;;31.61;45.12;101341.00;5033533;28;20246;-47
2022/08/03 11:29:29;;;;;;;5.73;3.70;;;;;;;31.72;46.02;101350.59;5033679;28;20475;-45
2022/08/03 11:31:57;;;;;;;4.67;2.60;;;;;;;31.48;45.60;101356.53;5034164;28;20193;-48
2022/08/03 11:34:25;;;;;;;4.20;3.30;;;;;;;31.23;47.08;101357.28;5017529;28;20195;-46
2022/08/03 11:37:21;;;;;;;4.67;3.30;;;;;;;31.16;47.64;101363.25;5025686;28;20240;-46
2022/08/03 11:39:55;;;;;;;4.90;3.80;;;;;;;30.81;48.11;101366.97;5033016;28;20652;-45
2022/08/03 11:42:47;;;;;;;3.73;3.43;;;;;;;30.53;48.92;101358.09;5033637;28;20435;-45
2022/08/03 11:45:15;;;;;;;3.90;3.63;;;;;;;30.44;49.50;101361.91;5033260;28;20289;-47